createdAt,value
2022-07-29T00:01:19.449Z,16.99
2022-07-29T00:04:22.634Z,16.99
2022-07-29T00:07:24.923Z,16.92
2022-07-29T00:10:27.184Z,16.92
2022-07-29T00:13:32.120Z,16.99
2022-07-29T00:16:35.945Z,17.00
2022-07-29T00:19:37.869Z,16.99
2022-07-29T00:22:40.447Z,17.06
2022-07-29T00:25:42.380Z,17.04
2022-07-29T00:28:44.503Z,17.09
2022-07-29T00:31:46.637Z,17.14
2022-07-29T00:35:07.288Z,17.03
2022-07-29T00:38:09.438Z,17.07
2022-07-29T00:41:12.190Z,17.09
2022-07-29T00:44:14.542Z,17.07
2022-07-29T00:47:16.817Z,17.04
2022-07-29T00:50:19.155Z,17.04
2022-07-29T00:53:22.461Z,17.00
2022-07-29T00:56:24.483Z,16.94
2022-07-29T00:59:34.653Z,16.96
2022-07-29T01:02:37.321Z,17.04
2022-07-29T01:05:51.028Z,16.97
2022-07-29T01:08:53.990Z,16.92
2022-07-29T01:11:56.629Z,17.00
2022-07-29T01:15:00.424Z,16.94
2022-07-29T01:18:29.205Z,16.82
2022-07-29T01:21:51.090Z,16.84
2022-07-29T01:24:56.165Z,16.86
2022-07-29T01:28:01.253Z,16.76
2022-07-29T01:31:08.060Z,16.79
2022-07-29T01:34:22.569Z,16.75
2022-07-29T01:37:30.882Z,16.72
2022-07-29T01:40:41.956Z,16.69
2022-07-29T01:43:54.581Z,16.68
2022-07-29T01:47:01.433Z,16.72
2022-07-29T01:50:09.042Z,16.77
2022-07-29T01:53:13.328Z,16.65
2022-07-29T01:56:19.713Z,16.68
2022-07-29T01:59:22.461Z,16.60
2022-07-29T02:02:27.476Z,16.62
2022-07-29T02:05:31.644Z,16.55
2022-07-29T02:08:35.523Z,16.51
2022-07-29T02:11:39.318Z,16.42
2022-07-29T02:14:46.854Z,16.45
2022-07-29T02:17:57.672Z,16.39
2022-07-29T02:21:00.895Z,16.38
2022-07-29T02:24:05.509Z,16.45
2022-07-29T02:27:09.172Z,16.51
2022-07-29T02:30:13.416Z,16.59
2022-07-29T02:33:18.513Z,16.58
2022-07-29T02:36:22.889Z,16.65
2022-07-29T02:39:26.433Z,16.60
2022-07-29T02:42:29.777Z,16.56
2022-07-29T02:45:33.471Z,16.55
2022-07-29T02:48:39.884Z,16.55
2022-07-29T02:51:50.581Z,16.48
2022-07-29T02:54:54.960Z,16.49
2022-07-29T02:58:03.349Z,16.38
2022-07-29T03:01:21.330Z,16.41
2022-07-29T03:04:27.341Z,16.39
2022-07-29T03:07:30.376Z,16.39
2022-07-29T03:10:33.006Z,16.41
2022-07-29T03:13:36.728Z,16.35
2022-07-29T03:16:41.235Z,16.30
2022-07-29T03:19:43.518Z,16.24
2022-07-29T03:22:49.116Z,16.22
2022-07-29T03:25:51.650Z,16.18
2022-07-29T03:28:54.489Z,16.21
2022-07-29T03:31:57.842Z,16.17
2022-07-29T03:35:00.689Z,16.09
2022-07-29T03:38:02.767Z,16.08
2022-07-29T03:41:10.088Z,16.02
2022-07-29T03:44:13.659Z,16.05
2022-07-29T03:47:18.667Z,16.09
2022-07-29T03:50:23.967Z,16.11
2022-07-29T03:53:26.558Z,15.94
2022-07-29T03:56:29.979Z,15.88
2022-07-29T03:59:35.070Z,15.91
2022-07-29T04:02:39.322Z,15.90
2022-07-29T04:05:42.359Z,15.81
2022-07-29T04:08:44.275Z,15.83
2022-07-29T04:12:01.577Z,15.88
2022-07-29T04:15:06.644Z,15.85
2022-07-29T04:18:08.830Z,15.83
2022-07-29T04:21:10.817Z,15.83
2022-07-29T04:24:14.311Z,15.85
2022-07-29T04:27:16.673Z,15.93
2022-07-29T04:30:19.607Z,15.87
2022-07-29T04:33:21.520Z,15.97
2022-07-29T04:36:29.111Z,16.01
2022-07-29T04:39:31.971Z,16.02
2022-07-29T04:42:34.263Z,16.15
2022-07-29T04:45:46.311Z,16.28
2022-07-29T04:48:48.859Z,16.35
2022-07-29T04:51:50.865Z,16.38
2022-07-29T04:54:52.925Z,16.44
2022-07-29T04:57:54.977Z,16.49
2022-07-29T05:00:57.145Z,16.56
2022-07-29T05:04:00.632Z,16.58
2022-07-29T05:07:03.701Z,16.60
2022-07-29T05:10:06.223Z,16.69
2022-07-29T05:13:08.974Z,16.75
2022-07-29T05:16:11.039Z,16.79
2022-07-29T05:19:14.601Z,16.84
2022-07-29T05:22:17.119Z,16.87
2022-07-29T05:25:19.454Z,16.93
2022-07-29T05:28:21.589Z,17.00
2022-07-29T05:31:23.771Z,16.93
2022-07-29T05:34:26.250Z,16.90
2022-07-29T05:37:28.727Z,16.90
2022-07-29T05:40:31.012Z,16.90
2022-07-29T05:43:33.786Z,16.97
2022-07-29T05:46:35.800Z,17.10
2022-07-29T05:49:38.618Z,17.16
2022-07-29T05:52:40.628Z,17.33
2022-07-29T05:55:43.632Z,17.48
2022-07-29T05:58:45.713Z,17.64
2022-07-29T06:01:48.105Z,17.79
2022-07-29T06:04:50.738Z,18.01
2022-07-29T06:07:53.250Z,18.28
2022-07-29T06:10:55.336Z,18.30
2022-07-29T06:13:57.685Z,18.29
2022-07-29T06:16:59.678Z,18.26
2022-07-29T06:20:02.968Z,18.39
2022-07-29T06:23:05.731Z,18.69
2022-07-29T06:26:08.279Z,18.94
2022-07-29T06:29:14.089Z,18.80
2022-07-29T06:32:16.632Z,19.18
2022-07-29T06:35:39.043Z,19.73
2022-07-29T06:38:44.888Z,20.02
2022-07-29T06:41:51.850Z,20.03
2022-07-29T06:44:53.992Z,19.63
2022-07-29T06:47:56.017Z,19.35
2022-07-29T06:50:58.587Z,19.17
2022-07-29T06:54:03.443Z,19.17
2022-07-29T06:57:06.164Z,19.27
2022-07-29T07:00:09.081Z,19.24
2022-07-29T07:03:11.344Z,19.45
2022-07-29T07:06:15.190Z,19.96
2022-07-29T07:09:17.439Z,19.95
2022-07-29T07:12:20.108Z,19.96
2022-07-29T07:15:23.026Z,19.96
2022-07-29T07:18:41.734Z,19.96
2022-07-29T07:21:44.107Z,20.09
2022-07-29T07:24:46.017Z,20.20
2022-07-29T07:27:48.162Z,20.73
2022-07-29T07:30:50.303Z,21.43
2022-07-29T07:33:54.524Z,21.85
2022-07-29T07:36:56.774Z,22.13
2022-07-29T07:39:59.107Z,22.74
2022-07-29T07:43:01.058Z,22.95
2022-07-29T07:46:03.788Z,23.23
2022-07-29T07:49:06.019Z,23.20
2022-07-29T07:52:08.183Z,23.41
2022-07-29T07:55:10.246Z,23.69
2022-07-29T07:58:12.856Z,23.43
2022-07-29T08:01:15.014Z,23.59
2022-07-29T08:04:22.188Z,23.97
2022-07-29T08:07:27.219Z,24.42
2022-07-29T08:10:47.996Z,24.79
2022-07-29T08:13:50.270Z,24.62
2022-07-29T08:16:53.099Z,24.88
2022-07-29T08:19:56.175Z,25.45
2022-07-29T08:22:58.366Z,25.74
2022-07-29T08:26:00.343Z,26.38
2022-07-29T08:29:02.715Z,26.71
2022-07-29T08:32:05.711Z,27.23
2022-07-29T08:35:08.583Z,27.54
2022-07-29T08:38:10.991Z,27.50
2022-07-29T08:41:13.496Z,27.06
2022-07-29T08:44:30.842Z,26.35
2022-07-29T08:47:34.384Z,25.78
2022-07-29T08:50:37.877Z,26.52
2022-07-29T08:53:43.046Z,27.30
2022-07-29T08:56:49.121Z,27.65
2022-07-29T08:59:55.501Z,26.92
2022-07-29T09:02:59.878Z,26.51
2022-07-29T09:06:03.872Z,26.86
2022-07-29T09:09:06.855Z,27.61
2022-07-29T09:12:09.311Z,27.91
2022-07-29T09:15:11.793Z,27.55
2022-07-29T09:18:36.065Z,27.37
2022-07-29T09:22:03.142Z,26.31
2022-07-29T09:25:06.576Z,25.97
2022-07-29T09:28:11.287Z,26.32
2022-07-29T09:31:13.637Z,27.09
2022-07-29T09:34:17.924Z,25.94
2022-07-29T09:37:33.355Z,25.20
2022-07-29T09:40:35.542Z,24.99
2022-07-29T09:43:38.824Z,25.35
2022-07-29T09:46:43.104Z,25.96
2022-07-29T09:49:59.464Z,25.98
2022-07-29T09:53:01.467Z,26.28
2022-07-29T09:56:04.873Z,27.22
2022-07-29T09:59:08.304Z,28.39
2022-07-29T10:02:18.918Z,28.73
2022-07-29T10:05:26.710Z,28.76
2022-07-29T10:08:38.848Z,28.97
2022-07-29T10:11:49.262Z,29.65
2022-07-29T10:14:52.496Z,29.35
2022-07-29T10:17:57.167Z,30.35
2022-07-29T10:21:02.501Z,29.34
2022-07-29T10:24:05.935Z,28.76
2022-07-29T10:27:09.394Z,28.56
2022-07-29T10:30:16.026Z,27.60
2022-07-29T10:33:52.892Z,27.19
2022-07-29T10:36:58.023Z,27.07
2022-07-29T10:41:03.286Z,26.00
2022-07-29T10:44:17.334Z,27.19
2022-07-29T10:47:23.035Z,29.34
2022-07-29T10:50:25.349Z,31.04
2022-07-29T10:53:48.188Z,29.47
2022-07-29T10:56:50.271Z,29.03
2022-07-29T11:00:02.173Z,28.76
2022-07-29T11:07:03.987Z,28.66
2022-07-29T11:10:15.526Z,30.32
2022-07-29T11:13:48.172Z,31.26
2022-07-29T11:17:05.931Z,31.26
2022-07-29T11:20:38.925Z,30.23
2022-07-29T11:23:44.545Z,30.08
2022-07-29T11:27:08.489Z,31.28
2022-07-29T11:30:12.977Z,31.41
2022-07-29T11:37:17.582Z,30.84
2022-07-29T11:40:21.435Z,30.73
2022-07-29T11:43:50.642Z,29.91
2022-07-29T11:46:54.290Z,30.59
2022-07-29T11:49:59.933Z,31.58
2022-07-29T11:53:10.726Z,29.61
2022-07-29T11:56:17.059Z,29.47
2022-07-29T11:59:21.066Z,31.00
2022-07-29T12:02:36.468Z,31.20
2022-07-29T12:05:48.200Z,30.80
2022-07-29T12:07:01.472Z,30.46
2022-07-29T12:08:53.756Z,31.24
2022-07-29T12:12:04.979Z,31.77
2022-07-29T12:15:22.216Z,31.68
2022-07-29T12:18:25.111Z,31.51
2022-07-29T12:21:28.737Z,31.78
2022-07-29T12:24:44.913Z,31.69
2022-07-29T12:27:47.225Z,31.42
2022-07-29T12:30:51.707Z,30.86
2022-07-29T12:33:54.766Z,30.60
2022-07-29T12:36:59.526Z,30.75
2022-07-29T12:40:01.959Z,31.26
2022-07-29T12:43:14.756Z,31.41
2022-07-29T12:46:17.425Z,31.62
2022-07-29T12:49:24.229Z,31.45
2022-07-29T12:52:32.029Z,31.65
2022-07-29T12:56:07.919Z,31.89
2022-07-29T12:59:23.033Z,31.21
2022-07-29T13:02:25.869Z,31.28
2022-07-29T13:05:49.061Z,31.55
2022-07-29T13:09:03.934Z,31.37
2022-07-29T13:12:11.888Z,31.40
2022-07-29T13:15:17.297Z,31.82
2022-07-29T13:18:33.534Z,32.11
2022-07-29T13:21:36.477Z,31.69
2022-07-29T13:24:53.897Z,31.55
2022-07-29T13:27:56.733Z,31.28
2022-07-29T13:30:58.891Z,31.49
2022-07-29T13:34:01.237Z,31.86
2022-07-29T13:37:03.308Z,31.42
2022-07-29T13:40:07.438Z,31.40
2022-07-29T13:43:13.496Z,31.21
2022-07-29T13:46:15.795Z,31.08
2022-07-29T13:49:17.887Z,30.91
2022-07-29T13:52:20.598Z,30.39
2022-07-29T13:55:24.667Z,30.97
2022-07-29T13:58:27.228Z,30.51
2022-07-29T14:01:31.422Z,29.81
2022-07-29T14:04:35.074Z,28.53
2022-07-29T14:07:39.720Z,28.12
2022-07-29T14:10:41.929Z,27.74
2022-07-29T14:13:47.926Z,27.29
2022-07-29T14:16:52.484Z,26.51
2022-07-29T14:19:57.530Z,26.22
2022-07-29T14:22:59.913Z,26.29
2022-07-29T14:26:02.019Z,26.02
2022-07-29T14:29:05.512Z,26.13
2022-07-29T14:32:08.728Z,26.01
2022-07-29T14:35:11.641Z,25.62
2022-07-29T14:38:15.397Z,25.42
2022-07-29T14:41:17.707Z,26.17
2022-07-29T14:44:19.692Z,27.19
2022-07-29T14:47:22.865Z,27.68
2022-07-29T14:50:31.654Z,27.74
2022-07-29T14:53:34.737Z,27.29
2022-07-29T14:56:37.641Z,26.73
2022-07-29T14:59:48.807Z,25.94
2022-07-29T15:03:01.787Z,25.65
2022-07-29T15:06:04.780Z,25.20
2022-07-29T15:09:07.260Z,24.81
2022-07-29T15:12:11.488Z,24.61
2022-07-29T15:15:13.668Z,24.45
2022-07-29T15:18:16.341Z,24.45
2022-07-29T15:21:28.224Z,24.20
2022-07-29T15:24:30.434Z,24.00
2022-07-29T15:27:32.429Z,23.81
2022-07-29T15:30:36.982Z,23.81
2022-07-29T15:33:39.348Z,23.66
2022-07-29T15:36:51.960Z,23.55
2022-07-29T15:39:59.884Z,23.50
2022-07-29T15:43:06.781Z,23.32
2022-07-29T15:46:27.513Z,23.26
2022-07-29T15:49:48.786Z,23.20
2022-07-29T15:52:51.957Z,23.22
2022-07-29T15:55:54.182Z,23.16
2022-07-29T15:58:56.642Z,23.15
2022-07-29T16:01:59.264Z,23.18
2022-07-29T16:05:01.206Z,23.22
2022-07-29T16:08:03.448Z,23.22
2022-07-29T16:11:05.499Z,23.33
2022-07-29T16:14:09.254Z,23.39
2022-07-29T16:17:14.262Z,23.18
2022-07-29T16:20:17.274Z,23.01
2022-07-29T16:23:19.217Z,22.92
2022-07-29T16:26:21.610Z,22.79
2022-07-29T16:29:23.523Z,22.76
2022-07-29T16:32:25.754Z,22.76
2022-07-29T16:35:39.119Z,22.91
2022-07-29T16:38:47.185Z,23.05
2022-07-29T16:41:49.795Z,23.20
2022-07-29T16:44:52.132Z,23.28
2022-07-29T16:48:00.235Z,23.25
2022-07-29T16:51:03.427Z,23.19
2022-07-29T16:54:05.845Z,23.30
2022-07-29T16:57:08.347Z,23.49
2022-07-29T17:00:11.119Z,23.55
2022-07-29T17:03:13.496Z,23.49
2022-07-29T17:06:15.560Z,23.50
2022-07-29T17:09:18.186Z,23.55
2022-07-29T17:12:20.142Z,23.49
2022-07-29T17:15:22.422Z,23.52
2022-07-29T17:18:24.402Z,23.42
2022-07-29T17:21:28.190Z,23.16
2022-07-29T17:24:30.913Z,22.90
2022-07-29T17:27:33.794Z,22.81
2022-07-29T17:30:36.001Z,22.65
2022-07-29T17:33:38.469Z,22.50
2022-07-29T17:36:40.736Z,22.40
2022-07-29T17:39:43.142Z,22.24
2022-07-29T17:42:45.485Z,22.12
2022-07-29T17:45:49.803Z,22.04
2022-07-29T17:48:54.817Z,21.94
2022-07-29T17:52:00.785Z,21.90
2022-07-29T17:55:05.213Z,21.82
2022-07-29T17:58:10.454Z,21.73
2022-07-29T18:01:12.835Z,21.66
2022-07-29T18:04:21.011Z,21.59
2022-07-29T18:07:23.294Z,21.48
2022-07-29T18:10:25.825Z,21.39
2022-07-29T18:13:27.780Z,21.32
2022-07-29T18:16:30.074Z,21.25
2022-07-29T18:19:32.104Z,21.18
2022-07-29T18:22:35.020Z,21.12
2022-07-29T18:25:37.164Z,21.04
2022-07-29T18:28:39.773Z,20.97
2022-07-29T18:31:42.680Z,20.87
2022-07-29T18:34:45.212Z,20.80
2022-07-29T18:38:02.199Z,20.70
2022-07-29T18:41:05.641Z,20.68
2022-07-29T18:44:09.689Z,20.53
2022-07-29T18:47:12.667Z,20.48
2022-07-29T18:50:16.183Z,20.34
2022-07-29T18:53:18.387Z,20.16
2022-07-29T18:56:21.252Z,20.12
2022-07-29T18:59:23.824Z,20.05
2022-07-29T19:02:26.221Z,19.95
2022-07-29T19:05:28.719Z,19.87
2022-07-29T19:08:31.036Z,19.76
2022-07-29T19:11:33.602Z,19.65
2022-07-29T19:14:35.960Z,19.55
2022-07-29T19:17:39.417Z,19.61
2022-07-29T19:20:42.218Z,19.45
2022-07-29T19:24:00.043Z,19.48
2022-07-29T19:27:06.745Z,19.36
2022-07-29T19:30:09.737Z,19.20
2022-07-29T19:33:14.864Z,19.08
2022-07-29T19:36:17.711Z,19.00
2022-07-29T19:39:19.909Z,18.90
2022-07-29T19:42:37.826Z,18.76
2022-07-29T19:45:40.189Z,18.90
2022-07-29T19:48:42.891Z,18.79
2022-07-29T19:51:45.336Z,18.73
2022-07-29T19:54:48.949Z,18.55
2022-07-29T19:57:55.623Z,18.49
2022-07-29T20:00:58.529Z,18.39
2022-07-29T20:04:05.081Z,18.39
2022-07-29T20:07:07.709Z,18.32
2022-07-29T20:10:10.369Z,18.29
2022-07-29T20:13:13.011Z,18.26
2022-07-29T20:16:14.927Z,18.29
2022-07-29T20:19:17.852Z,18.26
2022-07-29T20:22:21.191Z,18.10
2022-07-29T20:25:24.148Z,17.99
2022-07-29T20:28:26.333Z,17.94
2022-07-29T20:31:30.717Z,17.82
2022-07-29T20:34:33.166Z,17.79
2022-07-29T20:37:55.645Z,17.78
2022-07-29T20:40:59.136Z,17.75
2022-07-29T20:44:02.133Z,17.71
2022-07-29T20:47:04.383Z,17.74
2022-07-29T20:50:07.131Z,17.63
2022-07-29T20:53:09.478Z,17.58
2022-07-29T20:56:12.838Z,17.51
2022-07-29T20:59:15.192Z,17.55
2022-07-29T21:02:17.845Z,17.44
2022-07-29T21:05:19.933Z,17.45
2022-07-29T21:08:22.789Z,17.44
2022-07-29T21:11:44.100Z,17.41
2022-07-29T21:14:48.033Z,17.31
2022-07-29T21:17:52.498Z,17.24
2022-07-29T21:20:54.963Z,17.21
2022-07-29T21:23:57.665Z,17.20
2022-07-29T21:27:21.070Z,17.17
2022-07-29T21:30:23.363Z,17.16
2022-07-29T21:33:30.357Z,17.14
2022-07-29T21:36:48.872Z,17.06
2022-07-29T21:39:51.453Z,17.07
2022-07-29T21:42:54.047Z,17.09
2022-07-29T21:45:57.392Z,17.10
2022-07-29T21:48:59.438Z,16.99
2022-07-29T21:52:01.681Z,16.96
2022-07-29T21:55:04.127Z,16.92
2022-07-29T21:58:06.763Z,16.86
2022-07-29T22:01:08.841Z,16.83
2022-07-29T22:04:11.185Z,16.82
2022-07-29T22:07:13.425Z,16.76
2022-07-29T22:10:16.169Z,16.80
2022-07-29T22:13:18.159Z,16.76
2022-07-29T22:16:20.255Z,16.65
2022-07-29T22:19:22.197Z,16.63
2022-07-29T22:22:29.741Z,16.59
2022-07-29T22:25:31.778Z,16.52
2022-07-29T22:28:33.988Z,16.51
2022-07-29T22:31:36.177Z,16.49
2022-07-29T22:34:38.723Z,16.47
2022-07-29T22:45:13.822Z,16.53
2022-07-29T22:48:16.196Z,16.52
2022-07-29T22:51:18.160Z,16.52
2022-07-29T22:54:20.351Z,16.48
2022-07-29T22:57:22.333Z,16.42
2022-07-29T23:00:24.424Z,16.42
2022-07-29T23:03:26.550Z,16.51
2022-07-29T23:06:29.851Z,16.39
2022-07-29T23:09:31.740Z,16.39
2022-07-29T23:12:34.061Z,16.35
2022-07-29T23:15:36.030Z,16.33
2022-07-29T23:18:39.602Z,16.29
2022-07-29T23:21:41.616Z,16.29
2022-07-29T23:24:43.748Z,16.19
2022-07-29T23:27:45.698Z,16.29
2022-07-29T23:30:48.051Z,16.22
2022-07-29T23:33:49.973Z,16.25
2022-07-29T23:36:52.743Z,16.22
2022-07-29T23:39:54.581Z,16.21
2022-07-29T23:42:56.871Z,16.24
2022-07-29T23:45:59.064Z,16.22
2022-07-29T23:49:01.755Z,16.28
2022-07-29T23:52:03.926Z,16.29
2022-07-29T23:55:38.212Z,16.22
2022-07-29T23:58:28.465Z,16.21
